createdAt,value
2022-11-26T00:01:46.409Z,101760.81
2022-11-26T00:04:13.415Z,101763.53
2022-11-26T00:06:42.549Z,101759.16
2022-11-26T00:09:16.645Z,101753.13
2022-11-26T00:11:43.314Z,101765.28
2022-11-26T00:14:17.809Z,101757.31
2022-11-26T00:16:45.036Z,101762.75
2022-11-26T00:19:11.648Z,101762.81
2022-11-26T00:21:42.261Z,101767.53
2022-11-26T00:24:27.834Z,101766.25
2022-11-26T00:26:57.571Z,101765.41
2022-11-26T00:29:24.494Z,101770.84
2022-11-26T00:31:51.362Z,101778.13
2022-11-26T00:34:18.019Z,101778.75
2022-11-26T00:36:44.752Z,101783.19
2022-11-26T00:39:18.999Z,101773.19
2022-11-26T00:41:52.624Z,101779.81
2022-11-26T00:44:22.584Z,101779.34
2022-11-26T00:46:50.342Z,101788.66
2022-11-26T00:49:17.672Z,101779.75
2022-11-26T00:51:45.849Z,101790.47
2022-11-26T00:54:15.297Z,101789.38
2022-11-26T00:56:46.302Z,101789.03
2022-11-26T00:59:17.136Z,101793.75
2022-11-26T01:01:43.906Z,101789.38
2022-11-26T01:04:10.516Z,101785.88
2022-11-26T01:06:40.753Z,101793.28
2022-11-26T01:09:13.679Z,101797.06
2022-11-26T01:11:40.268Z,101803.69
2022-11-26T01:14:15.099Z,101800.66
2022-11-26T01:16:43.471Z,101808.25
2022-11-26T01:19:12.317Z,101812.72
2022-11-26T01:21:39.309Z,101808.00
2022-11-26T01:24:06.456Z,101807.41
2022-11-26T01:26:38.412Z,101805.50
2022-11-26T01:29:05.563Z,101807.22
2022-11-26T01:31:32.582Z,101794.09
2022-11-26T01:33:59.342Z,101797.88
2022-11-26T01:36:27.950Z,101791.69
2022-11-26T01:38:56.917Z,101791.34
2022-11-26T01:42:02.413Z,101790.63
2022-11-26T01:44:32.682Z,101788.03
2022-11-26T01:47:00.942Z,101793.81
2022-11-26T01:49:30.965Z,101795.03
2022-11-26T01:52:11.535Z,101797.88
2022-11-26T01:54:45.197Z,101787.25
2022-11-26T01:57:25.414Z,101791.28
2022-11-26T02:00:04.156Z,101787.22
2022-11-26T02:02:42.799Z,101797.22
2022-11-26T02:05:18.370Z,101785.06
2022-11-26T02:07:46.362Z,101786.25
2022-11-26T02:10:13.838Z,101792.94
2022-11-26T02:12:42.673Z,101793.72
2022-11-26T02:15:11.086Z,101802.63
2022-11-26T02:17:45.707Z,101821.22
2022-11-26T02:20:33.378Z,101812.94
2022-11-26T02:23:29.918Z,101815.13
2022-11-26T02:26:20.798Z,101805.09
2022-11-26T02:29:17.322Z,101810.03
2022-11-26T02:31:55.817Z,101804.88
2022-11-26T02:34:44.860Z,101807.72
2022-11-26T02:37:27.752Z,101816.25
2022-11-26T02:39:54.404Z,101815.13
2022-11-26T02:42:28.832Z,101821.09
2022-11-26T02:44:59.139Z,101820.34
2022-11-26T02:47:28.324Z,101821.84
2022-11-26T02:49:59.707Z,101826.41
2022-11-26T02:52:28.254Z,101825.31
2022-11-26T02:54:56.743Z,101830.53
2022-11-26T02:57:28.066Z,101827.81
2022-11-26T02:59:55.047Z,101827.50
2022-11-26T03:02:28.715Z,101833.16
2022-11-26T03:04:59.853Z,101834.31
2022-11-26T03:07:29.579Z,101846.69
2022-11-26T03:09:59.093Z,101839.22
2022-11-26T03:12:26.257Z,101839.44
2022-11-26T03:14:53.191Z,101844.50
2022-11-26T03:17:19.896Z,101842.03
2022-11-26T03:19:47.070Z,101838.69
2022-11-26T03:22:14.840Z,101840.41
2022-11-26T03:24:44.684Z,101834.91
2022-11-26T03:27:11.351Z,101845.75
2022-11-26T03:29:37.987Z,101848.19
2022-11-26T03:32:05.169Z,101853.75
2022-11-26T03:34:32.015Z,101849.91
2022-11-26T03:36:58.589Z,101849.34
2022-11-26T03:39:25.228Z,101857.41
2022-11-26T03:41:51.850Z,101848.84
2022-11-26T03:44:18.512Z,101853.81
2022-11-26T03:46:45.114Z,101857.06
2022-11-26T03:49:11.731Z,101861.59
2022-11-26T03:51:38.397Z,101863.63
2022-11-26T03:54:05.072Z,101869.13
2022-11-26T03:56:31.698Z,101865.78
2022-11-26T03:58:58.407Z,101859.72
2022-11-26T04:01:25.653Z,101868.03
2022-11-26T04:03:52.578Z,101875.03
2022-11-26T04:06:19.318Z,101872.22
2022-11-26T04:08:49.049Z,101875.78
2022-11-26T04:11:15.833Z,101884.97
2022-11-26T04:13:42.524Z,101881.97
2022-11-26T04:16:09.952Z,101881.91
2022-11-26T04:18:36.792Z,101889.13
2022-11-26T04:21:06.914Z,101884.78
2022-11-26T04:23:33.906Z,101890.34
2022-11-26T04:26:00.593Z,101901.88
2022-11-26T04:28:27.209Z,101903.03
2022-11-26T04:30:53.787Z,101901.41
2022-11-26T04:33:21.016Z,101900.88
2022-11-26T04:35:47.991Z,101903.13
2022-11-26T04:38:14.773Z,101896.41
2022-11-26T04:40:41.387Z,101902.00
2022-11-26T04:43:10.584Z,101899.22
2022-11-26T04:45:37.216Z,101905.25
2022-11-26T04:48:04.021Z,101905.00
2022-11-26T04:50:30.793Z,101903.63
2022-11-26T04:52:57.957Z,101898.13
2022-11-26T04:55:24.751Z,101898.81
2022-11-26T04:57:51.556Z,101899.69
2022-11-26T05:00:19.157Z,101902.78
2022-11-26T05:02:45.973Z,101906.66
2022-11-26T05:05:13.105Z,101904.25
2022-11-26T05:07:40.401Z,101899.53
2022-11-26T05:10:19.660Z,101909.66
2022-11-26T05:12:46.231Z,101899.69
2022-11-26T05:15:13.002Z,101901.50
2022-11-26T05:17:39.628Z,101907.56
2022-11-26T05:20:06.956Z,101909.50
2022-11-26T05:22:33.827Z,101905.59
2022-11-26T05:25:00.490Z,101907.28
2022-11-26T05:27:27.199Z,101906.50
2022-11-26T05:29:53.956Z,101914.53
2022-11-26T05:32:20.762Z,101918.72
2022-11-26T05:34:47.350Z,101920.06
2022-11-26T05:37:13.951Z,101913.69
2022-11-26T05:39:40.482Z,101915.03
2022-11-26T05:42:09.362Z,101922.56
2022-11-26T05:44:37.230Z,101924.75
2022-11-26T05:47:04.650Z,101933.09
2022-11-26T05:49:31.426Z,101919.22
2022-11-26T05:51:59.168Z,101918.38
2022-11-26T05:54:26.344Z,101918.66
2022-11-26T05:56:58.605Z,101927.00
2022-11-26T05:59:27.415Z,101926.44
2022-11-26T06:01:57.263Z,101938.09
2022-11-26T06:04:24.214Z,101942.22
2022-11-26T06:06:51.061Z,101940.88
2022-11-26T06:09:17.851Z,101949.19
2022-11-26T06:11:44.424Z,101951.97
2022-11-26T06:14:13.838Z,101946.41
2022-11-26T06:16:40.357Z,101946.41
2022-11-26T06:19:07.174Z,101950.88
2022-11-26T06:21:34.073Z,101950.28
2022-11-26T06:24:01.339Z,101952.81
2022-11-26T06:26:28.001Z,101950.88
2022-11-26T06:28:54.669Z,101953.94
2022-11-26T06:31:21.630Z,101955.88
2022-11-26T06:33:48.538Z,101955.88
2022-11-26T06:36:15.310Z,101955.88
2022-11-26T06:38:41.947Z,101958.91
2022-11-26T06:41:08.795Z,101964.16
2022-11-26T06:43:36.426Z,101973.28
2022-11-26T06:46:05.918Z,101965.78
2022-11-26T06:48:33.429Z,101974.97
2022-11-26T06:51:04.992Z,101973.06
2022-11-26T06:53:32.742Z,101968.06
2022-11-26T06:56:01.160Z,101967.53
2022-11-26T06:58:27.801Z,101967.53
2022-11-26T07:00:54.764Z,101968.34
2022-11-26T07:03:24.370Z,101970.00
2022-11-26T07:05:53.012Z,101975.31
2022-11-26T07:08:19.701Z,101977.78
2022-11-26T07:10:49.257Z,101974.44
2022-11-26T07:13:15.983Z,101983.00
2022-11-26T07:15:42.639Z,101983.59
2022-11-26T07:18:09.296Z,101984.66
2022-11-26T07:20:37.011Z,101985.75
2022-11-26T07:23:04.655Z,101992.75
2022-11-26T07:25:31.506Z,101996.34
2022-11-26T07:27:58.324Z,101996.88
2022-11-26T07:30:25.359Z,101993.56
2022-11-26T07:32:52.310Z,101997.19
2022-11-26T07:35:18.981Z,101992.47
2022-11-26T07:37:46.216Z,101997.97
2022-11-26T07:40:15.697Z,101986.09
2022-11-26T07:42:42.348Z,101999.69
2022-11-26T07:45:11.822Z,102007.94
2022-11-26T07:47:38.663Z,102010.19
2022-11-26T07:50:08.788Z,102015.72
2022-11-26T07:52:35.427Z,102014.03
2022-11-26T07:55:02.289Z,102014.31
2022-11-26T07:57:28.948Z,102022.34
2022-11-26T07:59:55.698Z,102027.91
2022-11-26T08:02:22.360Z,102035.69
2022-11-26T08:04:49.111Z,102029.88
2022-11-26T08:07:23.038Z,102030.97
2022-11-26T08:09:51.119Z,102030.94
2022-11-26T08:12:17.868Z,102031.22
2022-11-26T08:14:44.605Z,102032.34
2022-11-26T08:17:11.311Z,102031.22
2022-11-26T08:19:38.500Z,102033.72
2022-11-26T08:22:06.185Z,102030.41
2022-11-26T08:24:32.932Z,102032.06
2022-11-26T08:27:00.075Z,102029.03
2022-11-26T08:29:26.863Z,102032.34
2022-11-26T08:31:53.719Z,102032.94
2022-11-26T08:34:20.588Z,102028.47
2022-11-26T08:36:49.015Z,102032.91
2022-11-26T08:39:17.646Z,102031.78
2022-11-26T08:41:50.624Z,102033.75
2022-11-26T08:44:19.246Z,102039.56
2022-11-26T08:46:45.852Z,102039.56
2022-11-26T08:49:15.030Z,102037.34
2022-11-26T08:51:42.226Z,102047.84
2022-11-26T08:54:09.109Z,102039.00
2022-11-26T08:56:36.624Z,102039.00
2022-11-26T08:59:03.648Z,102041.78
2022-11-26T09:01:32.786Z,102040.38
2022-11-26T09:04:01.335Z,102045.66
2022-11-26T09:06:29.758Z,102042.59
2022-11-26T09:09:15.730Z,102046.19
2022-11-26T09:12:02.421Z,102049.50
2022-11-26T09:14:31.439Z,102045.66
2022-11-26T09:16:58.510Z,102048.66
2022-11-26T09:19:25.509Z,102051.72
2022-11-26T09:21:52.095Z,102055.34
2022-11-26T09:24:18.988Z,102055.03
2022-11-26T09:26:45.835Z,102059.22
2022-11-26T09:29:14.467Z,102053.94
2022-11-26T09:32:00.835Z,102061.41
2022-11-26T09:34:32.281Z,102055.59
2022-11-26T09:36:58.941Z,102057.78
2022-11-26T09:39:26.647Z,102053.34
2022-11-26T09:42:05.738Z,102052.28
2022-11-26T09:44:38.267Z,102057.25
2022-11-26T09:47:22.711Z,102063.63
2022-11-26T09:50:16.550Z,102066.38
2022-11-26T09:52:46.542Z,102078.31
2022-11-26T09:55:21.289Z,102081.63
2022-11-26T09:58:12.279Z,102060.00
2022-11-26T10:00:46.736Z,102067.78
2022-11-26T10:03:18.213Z,102065.56
2022-11-26T10:06:05.204Z,102071.09
2022-11-26T10:08:46.618Z,102072.75
2022-11-26T10:11:39.656Z,102076.06
2022-11-26T10:14:39.302Z,102062.75
2022-11-26T10:17:25.053Z,102060.28
2022-11-26T10:20:27.771Z,102059.44
2022-11-26T10:23:09.645Z,102069.97
2022-11-26T10:25:47.456Z,102079.66
2022-11-26T10:28:27.925Z,102068.03
2022-11-26T10:31:04.297Z,102070.53
2022-11-26T10:33:43.698Z,102063.88
2022-11-26T10:36:16.483Z,102078.28
2022-11-26T10:38:43.141Z,102073.00
2022-11-26T10:41:09.826Z,102071.34
2022-11-26T10:43:36.399Z,102073.56
2022-11-26T10:46:03.039Z,102078.28
2022-11-26T10:48:31.631Z,102069.41
2022-11-26T10:51:16.332Z,102064.66
2022-11-26T10:54:00.818Z,102063.84
2022-11-26T10:56:33.026Z,102062.72
2022-11-26T10:59:04.072Z,102058.84
2022-11-26T11:01:39.026Z,102054.41
2022-11-26T11:04:23.149Z,102056.09
2022-11-26T11:06:50.166Z,102055.22
2022-11-26T11:09:32.277Z,102056.63
2022-11-26T11:12:11.015Z,102053.28
2022-11-26T11:14:43.437Z,102055.22
2022-11-26T11:17:40.907Z,102054.94
2022-11-26T11:20:16.597Z,102049.38
2022-11-26T11:22:47.180Z,102053.56
2022-11-26T11:25:26.070Z,102050.50
2022-11-26T11:27:54.403Z,102052.16
2022-11-26T11:30:34.815Z,102051.59
2022-11-26T11:33:25.504Z,102039.94
2022-11-26T11:36:17.051Z,102041.06
2022-11-26T11:38:47.635Z,102026.91
2022-11-26T11:41:46.533Z,102027.22
2022-11-26T11:44:20.922Z,102038.28
2022-11-26T11:46:59.536Z,102035.78
2022-11-26T11:49:50.274Z,102038.78
2022-11-26T11:52:40.706Z,102041.56
2022-11-26T11:55:13.026Z,102030.50
2022-11-26T11:57:45.606Z,102025.78
2022-11-26T12:00:16.366Z,102019.41
2022-11-26T12:02:50.784Z,102022.75
2022-11-26T12:05:36.279Z,102022.75
2022-11-26T12:08:30.426Z,102026.06
2022-11-26T12:11:32.296Z,102032.66
2022-11-26T12:14:12.363Z,102038.78
2022-11-26T12:16:42.815Z,102037.13
2022-11-26T12:19:34.452Z,102025.47
2022-11-26T12:22:14.401Z,102034.63
2022-11-26T12:24:49.575Z,102024.34
2022-11-26T12:27:26.378Z,102020.44
2022-11-26T12:30:05.199Z,102017.66
2022-11-26T12:32:38.217Z,102018.25
2022-11-26T12:35:14.031Z,102022.38
2022-11-26T12:37:42.691Z,102027.09
2022-11-26T12:40:30.974Z,102010.16
2022-11-26T12:43:08.914Z,102021.50
2022-11-26T12:46:05.962Z,102022.63
2022-11-26T12:48:40.493Z,102016.78
2022-11-26T12:51:31.838Z,102020.69
2022-11-26T12:54:16.428Z,102022.03
2022-11-26T12:57:20.595Z,102017.34
2022-11-26T13:00:06.672Z,102016.50
2022-11-26T13:02:37.933Z,102021.47
2022-11-26T13:05:05.602Z,102023.44
2022-11-26T13:08:11.423Z,102015.94
2022-11-26T13:10:44.381Z,102017.59
2022-11-26T13:13:11.141Z,102024.81
2022-11-26T13:15:45.539Z,102020.91
2022-11-26T13:18:30.910Z,102025.34
2022-11-26T13:21:14.546Z,102018.69
2022-11-26T13:23:53.376Z,102019.75
2022-11-26T13:26:44.966Z,102016.47
2022-11-26T13:29:33.843Z,102002.28
2022-11-26T13:32:34.086Z,101997.88
2022-11-26T13:35:19.021Z,102004.25
2022-11-26T13:38:03.637Z,101994.53
2022-11-26T13:40:44.029Z,101998.13
2022-11-26T13:43:35.388Z,102000.91
2022-11-26T13:46:08.232Z,101998.63
2022-11-26T13:48:45.129Z,101995.31
2022-11-26T13:51:27.459Z,101993.63
2022-11-26T13:54:00.407Z,101999.72
2022-11-26T13:56:35.312Z,101994.66
2022-11-26T13:59:28.265Z,101988.53
2022-11-26T14:02:34.874Z,101986.88
2022-11-26T14:05:08.411Z,101980.78
2022-11-26T14:07:38.294Z,101983.06
2022-11-26T14:10:09.156Z,101971.97
2022-11-26T14:13:05.193Z,101969.19
2022-11-26T14:15:40.941Z,101971.13
2022-11-26T14:18:17.826Z,101961.44
2022-11-26T14:21:03.927Z,101963.66
2022-11-26T14:23:59.152Z,101954.72
2022-11-26T14:26:28.355Z,101958.63
2022-11-26T14:29:06.917Z,101968.06
2022-11-26T14:31:34.749Z,101961.69
2022-11-26T14:34:25.969Z,101966.91
2022-11-26T14:37:00.570Z,101963.59
2022-11-26T14:39:28.988Z,101963.00
2022-11-26T14:42:05.215Z,101969.66
2022-11-26T14:44:33.412Z,101971.06
2022-11-26T14:47:20.854Z,101973.03
2022-11-26T14:49:54.227Z,101965.25
2022-11-26T14:52:26.125Z,101959.97
2022-11-26T14:54:55.878Z,101965.25
2022-11-26T14:57:29.401Z,101965.25
2022-11-26T14:59:57.277Z,101964.69
2022-11-26T15:02:25.904Z,101965.22
2022-11-26T15:05:04.602Z,101960.19
2022-11-26T15:07:32.072Z,101953.53
2022-11-26T15:10:15.363Z,101961.34
2022-11-26T15:12:47.213Z,101956.88
2022-11-26T15:15:20.466Z,101957.13
2022-11-26T15:17:53.323Z,101961.84
2022-11-26T15:20:23.426Z,101957.09
2022-11-26T15:22:55.792Z,101961.53
2022-11-26T15:25:28.997Z,101966.53
2022-11-26T15:28:00.456Z,101961.31
2022-11-26T15:30:35.498Z,101971.28
2022-11-26T15:33:03.415Z,101967.34
2022-11-26T15:35:31.155Z,101967.41
2022-11-26T15:37:58.262Z,101973.44
2022-11-26T15:40:36.366Z,101965.09
2022-11-26T15:43:04.003Z,101967.88
2022-11-26T15:45:39.067Z,101969.50
2022-11-26T15:48:27.129Z,101972.28
2022-11-26T15:50:59.890Z,101974.00
2022-11-26T15:53:31.085Z,101966.16
2022-11-26T15:55:57.872Z,101969.75
2022-11-26T15:58:30.595Z,101961.81
2022-11-26T16:01:01.221Z,101965.63
2022-11-26T16:03:43.576Z,101960.69
2022-11-26T16:06:27.083Z,101956.84
2022-11-26T16:09:01.719Z,101964.31
2022-11-26T16:11:31.182Z,101957.88
2022-11-26T16:13:57.740Z,101955.09
2022-11-26T16:16:27.588Z,101949.00
2022-11-26T16:18:59.900Z,101948.75
2022-11-26T16:21:34.364Z,101951.22
2022-11-26T16:24:08.020Z,101947.88
2022-11-26T16:27:00.970Z,101955.94
2022-11-26T16:29:29.579Z,101956.50
2022-11-26T16:31:56.253Z,101963.41
2022-11-26T16:34:25.393Z,101965.63
2022-11-26T16:36:58.872Z,101971.75
2022-11-26T16:39:30.021Z,101973.94
2022-11-26T16:41:57.229Z,101965.66
2022-11-26T16:44:24.326Z,101966.81
2022-11-26T16:46:51.953Z,101962.84
2022-11-26T16:49:18.589Z,101950.16
2022-11-26T16:51:45.385Z,101951.22
2022-11-26T16:54:15.975Z,101954.06
2022-11-26T16:56:42.776Z,101951.28
2022-11-26T16:59:29.052Z,101955.16
2022-11-26T17:01:55.661Z,101953.47
2022-11-26T17:04:22.649Z,101948.44
2022-11-26T17:06:52.173Z,101951.28
2022-11-26T17:09:19.128Z,101949.59
2022-11-26T17:11:49.070Z,101947.91
2022-11-26T17:14:15.957Z,101946.88
2022-11-26T17:16:42.829Z,101942.38
2022-11-26T17:19:13.356Z,101939.31
2022-11-26T17:21:44.056Z,101935.19
2022-11-26T17:24:10.759Z,101934.56
2022-11-26T17:26:37.532Z,101934.63
2022-11-26T17:29:04.386Z,101938.28
2022-11-26T17:31:31.051Z,101934.69
2022-11-26T17:33:57.771Z,101930.78
2022-11-26T17:36:24.435Z,101936.56
2022-11-26T17:38:51.565Z,101931.91
2022-11-26T17:41:18.597Z,101929.66
2022-11-26T17:43:45.158Z,101928.53
2022-11-26T17:46:21.684Z,101938.56
2022-11-26T17:48:49.360Z,101937.50
2022-11-26T17:51:16.483Z,101931.13
2022-11-26T17:53:45.513Z,101933.00
2022-11-26T17:56:23.566Z,101933.56
2022-11-26T17:58:50.521Z,101928.03
2022-11-26T18:01:18.020Z,101923.88
2022-11-26T18:03:45.713Z,101924.66
2022-11-26T18:06:26.197Z,101923.00
2022-11-26T18:08:52.957Z,101920.22
2022-11-26T18:11:19.841Z,101916.34
2022-11-26T18:13:46.640Z,101906.91
2022-11-26T18:16:14.985Z,101898.53
2022-11-26T18:18:44.727Z,101901.63
2022-11-26T18:21:12.547Z,101900.28
2022-11-26T18:23:41.331Z,101896.91
2022-11-26T18:26:16.783Z,101891.69
2022-11-26T18:28:43.515Z,101893.28
2022-11-26T18:31:10.402Z,101891.88
2022-11-26T18:33:37.120Z,101888.84
2022-11-26T18:36:04.045Z,101882.97
2022-11-26T18:38:33.032Z,101884.13
2022-11-26T18:41:03.578Z,101885.78
2022-11-26T18:43:31.672Z,101878.25
2022-11-26T18:45:58.664Z,101881.03
2022-11-26T18:48:25.318Z,101886.25
2022-11-26T18:51:02.111Z,101878.56
2022-11-26T18:53:29.460Z,101886.25
2022-11-26T18:56:14.420Z,101878.06
2022-11-26T18:58:41.678Z,101877.41
2022-11-26T19:01:20.260Z,101864.88
2022-11-26T19:03:47.129Z,101874.06
2022-11-26T19:06:19.002Z,101874.09
2022-11-26T19:08:46.693Z,101867.16
2022-11-26T19:11:21.816Z,101847.34
2022-11-26T19:13:48.631Z,101849.97
2022-11-26T19:16:18.015Z,101845.78
2022-11-26T19:18:45.029Z,101838.03
2022-11-26T19:21:23.817Z,101835.00
2022-11-26T19:23:51.784Z,101834.63
2022-11-26T19:26:18.766Z,101827.78
2022-11-26T19:28:45.870Z,101824.72
2022-11-26T19:31:15.436Z,101837.28
2022-11-26T19:33:42.493Z,101821.75
2022-11-26T19:36:12.923Z,101832.88
2022-11-26T19:38:39.631Z,101827.31
2022-11-26T19:41:06.988Z,101837.22
2022-11-26T19:43:35.670Z,101834.22
2022-11-26T19:46:07.781Z,101844.75
2022-11-26T19:48:37.162Z,101843.13
2022-11-26T19:51:04.463Z,101848.63
2022-11-26T19:53:32.192Z,101848.63
2022-11-26T19:56:02.209Z,101868.38
2022-11-26T19:58:30.624Z,101863.13
2022-11-26T20:00:57.647Z,101869.75
2022-11-26T20:03:25.299Z,101867.56
2022-11-26T20:05:52.528Z,101864.84
2022-11-26T20:08:19.108Z,101866.50
2022-11-26T20:10:49.942Z,101873.09
2022-11-26T20:13:16.775Z,101871.53
2022-11-26T20:15:53.399Z,101867.63
2022-11-26T20:18:20.099Z,101884.84
2022-11-26T20:20:58.533Z,101887.09
2022-11-26T20:23:25.732Z,101882.91
2022-11-26T20:25:52.520Z,101882.13
2022-11-26T20:28:19.317Z,101892.66
2022-11-26T20:30:46.030Z,101890.97
2022-11-26T20:33:12.713Z,101892.69
2022-11-26T20:35:40.739Z,101892.66
2022-11-26T20:38:07.769Z,101893.75
2022-11-26T20:40:34.398Z,101896.78
2022-11-26T20:43:01.064Z,101898.72
2022-11-26T20:45:27.580Z,101895.34
2022-11-26T20:47:55.839Z,101877.84
2022-11-26T20:50:22.591Z,101889.22
2022-11-26T20:52:49.336Z,101889.28
2022-11-26T20:55:18.057Z,101884.84
2022-11-26T20:57:44.684Z,101885.09
2022-11-26T21:00:16.917Z,101892.00
2022-11-26T21:02:47.553Z,101892.31
2022-11-26T21:05:15.578Z,101898.97
2022-11-26T21:07:42.444Z,101887.34
2022-11-26T21:10:09.805Z,101884.56
2022-11-26T21:12:37.464Z,101883.72
2022-11-26T21:15:05.624Z,101871.16
2022-11-26T21:17:32.403Z,101875.94
2022-11-26T21:19:58.971Z,101859.28
2022-11-26T21:22:25.640Z,101862.56
2022-11-26T21:24:52.199Z,101858.13
2022-11-26T21:27:18.846Z,101857.78
2022-11-26T21:29:46.486Z,101850.22
2022-11-26T21:32:13.140Z,101843.19
2022-11-26T21:34:39.912Z,101840.09
2022-11-26T21:37:06.653Z,101825.56
2022-11-26T21:39:33.473Z,101815.03
2022-11-26T21:42:00.156Z,101826.88
2022-11-26T21:44:26.789Z,101816.69
2022-11-26T21:46:53.510Z,101810.31
2022-11-26T21:49:20.099Z,101802.06
2022-11-26T21:51:46.740Z,101790.94
2022-11-26T21:54:13.333Z,101788.44
2022-11-26T21:56:39.915Z,101788.19
2022-11-26T21:59:06.583Z,101779.69
2022-11-26T22:01:36.006Z,101786.56
2022-11-26T22:04:07.236Z,101780.31
2022-11-26T22:06:34.558Z,101773.63
2022-11-26T22:09:01.463Z,101764.84
2022-11-26T22:11:30.747Z,101761.41
2022-11-26T22:14:00.400Z,101756.91
2022-11-26T22:16:29.625Z,101749.13
2022-11-26T22:18:58.070Z,101745.28
2022-11-26T22:21:33.399Z,101739.78
2022-11-26T22:24:01.866Z,101732.56
2022-11-26T22:26:31.473Z,101729.28
2022-11-26T22:28:58.866Z,101719.88
2022-11-26T22:31:28.287Z,101710.19
2022-11-26T22:33:56.961Z,101706.38
2022-11-26T22:36:24.557Z,101702.25
2022-11-26T22:38:51.468Z,101693.91
2022-11-26T22:41:18.174Z,101691.34
2022-11-26T22:43:44.980Z,101697.72
2022-11-26T22:46:14.965Z,101691.41
2022-11-26T22:48:42.584Z,101685.91
2022-11-26T22:51:10.121Z,101690.03
2022-11-26T22:53:37.237Z,101683.09
2022-11-26T22:56:04.329Z,101680.03
2022-11-26T22:58:33.676Z,101686.25
2022-11-26T23:01:03.455Z,101670.75
2022-11-26T23:03:32.826Z,101667.84
2022-11-26T23:06:08.591Z,101672.31
2022-11-26T23:08:35.847Z,101663.22
2022-11-26T23:11:34.009Z,101657.31
2022-11-26T23:14:02.278Z,101661.72
2022-11-26T23:16:29.412Z,101652.84
2022-11-26T23:18:57.126Z,101643.44
2022-11-26T23:21:36.102Z,101635.25
2022-11-26T23:24:02.850Z,101627.22
2022-11-26T23:26:32.708Z,101632.78
2022-11-26T23:29:01.564Z,101626.16
2022-11-26T23:31:39.860Z,101620.25
2022-11-26T23:34:07.414Z,101631.09
2022-11-26T23:36:35.310Z,101617.06
2022-11-26T23:39:04.516Z,101617.91
2022-11-26T23:41:31.082Z,101621.84
2022-11-26T23:43:57.782Z,101622.59
2022-11-26T23:46:30.969Z,101618.63
2022-11-26T23:48:57.923Z,101620.84
2022-11-26T23:51:27.863Z,101612.59
2022-11-26T23:53:54.820Z,101612.25
2022-11-26T23:56:24.613Z,101611.50
2022-11-26T23:58:53.886Z,101610.13
